Time;durP1;ratioP1;P1;durP2;ratioP2;P2;SDS_P1;SDS_P2;PMS_P1;PMS_P2;Temp;Humidity;BMP_temperature;BMP_pressure;BME280_temperature;BME280_humidity;BME280_pressure;Samples;Min_cycle;Max_cycle;Signal;HPM_P1;HPM_P2
2021/04/27 00:03:26;;;;;;;5.50;2.57;;;;;;;;;;12800107;22;20266;-71
2021/04/27 00:08:27;;;;;;;3.97;2.40;;;;;;;;;;12821177;23;20175;-71
2021/04/27 00:13:30;;;;;;;5.97;2.70;;;;;;;;;;12819681;23;20192;-70
2021/04/27 00:18:33;;;;;;;4.10;2.53;;;;;;;;;;12799172;23;20180;-70
2021/04/27 00:23:35;;;;;;;5.50;2.60;;;;;;;;;;12820452;23;20257;-71
2021/04/27 00:28:38;;;;;;;5.40;2.70;;;;;;;;;;12796495;23;20203;-71
2021/04/27 00:33:40;;;;;;;3.43;2.30;;;;;;;;;;12795197;23;20392;-71
2021/04/27 00:38:43;;;;;;;4.70;2.50;;;;;;;;;;12819751;23;20616;-72
2021/04/27 00:43:46;;;;;;;5.33;2.90;;;;;;;;;;12790955;23;20186;-71
2021/04/27 00:48:48;;;;;;;3.93;2.40;;;;;;;;;;12798340;23;20521;-71
2021/04/27 00:53:50;;;;;;;6.10;2.60;;;;;;;;;;12815061;23;20202;-71
2021/04/27 00:58:53;;;;;;;6.57;2.87;;;;;;;;;;12791705;23;20180;-70
2021/04/27 01:03:56;;;;;;;3.87;2.73;;;;;;;;;;12795355;23;20203;-71
2021/04/27 01:09:01;;;;;;;7.07;3.20;;;;;;;;;;12817789;23;20668;-71
2021/04/27 01:14:07;;;;;;;5.83;3.00;;;;;;;;;;12791373;23;20868;-71
2021/04/27 01:19:10;;;;;;;6.43;2.80;;;;;;;;;;12819354;23;20747;-71
2021/04/27 01:24:16;;;;;;;5.80;2.87;;;;;;;;;;12794718;23;20175;-71
2021/04/27 01:29:23;;;;;;;4.83;2.67;;;;;;;;;;12815894;23;20183;-71
2021/04/27 01:34:26;;;;;;;3.53;2.43;;;;;;;;;;12816524;23;20211;-70
2021/04/27 01:39:28;;;;;;;4.83;2.50;;;;;;;;;;12797527;23;20182;-72
2021/04/27 01:44:32;;;;;;;5.43;2.80;;;;;;;;;;12791779;23;20188;-71
2021/04/27 01:49:34;;;;;;;5.20;2.73;;;;;;;;;;12797716;23;20187;-71
2021/04/27 01:54:36;;;;;;;6.40;2.77;;;;;;;;;;12818771;23;20639;-71
2021/04/27 01:59:39;;;;;;;5.43;2.50;;;;;;;;;;12792024;23;20179;-71
2021/04/27 02:04:41;;;;;;;5.80;2.43;;;;;;;;;;12795389;23;20584;-71
2021/04/27 02:09:43;;;;;;;3.90;2.40;;;;;;;;;;12810885;23;20176;-71
2021/04/27 02:14:46;;;;;;;4.33;2.67;;;;;;;;;;12791072;23;20707;-71
2021/04/27 02:19:48;;;;;;;4.40;2.87;;;;;;;;;;12793918;23;20879;-71
2021/04/27 02:24:51;;;;;;;6.37;2.80;;;;;;;;;;12795289;23;20263;-71
2021/04/27 02:29:54;;;;;;;4.20;2.77;;;;;;;;;;12790040;23;20180;-71
2021/04/27 02:34:56;;;;;;;4.53;2.57;;;;;;;;;;12819876;23;20207;-71
2021/04/27 02:39:58;;;;;;;5.50;2.77;;;;;;;;;;12791097;23;20208;-71
2021/04/27 02:45:01;;;;;;;3.33;2.30;;;;;;;;;;12792998;23;20183;-71
2021/04/27 02:50:03;;;;;;;6.60;2.70;;;;;;;;;;12805096;23;20701;-71
2021/04/27 02:55:05;;;;;;;3.90;2.40;;;;;;;;;;12823947;23;20195;-71
2021/04/27 03:00:09;;;;;;;4.60;2.63;;;;;;;;;;12796727;23;20182;-71
2021/04/27 03:05:17;;;;;;;6.10;2.80;;;;;;;;;;12820766;23;20204;-71
2021/04/27 03:10:18;;;;;;;6.83;3.27;;;;;;;;;;12820972;23;20273;-70
2021/04/27 03:15:21;;;;;;;4.87;2.67;;;;;;;;;;12818811;23;20211;-70
2021/04/27 03:20:23;;;;;;;4.63;2.60;;;;;;;;;;12799478;23;20553;-70
2021/04/27 03:25:25;;;;;;;4.93;3.07;;;;;;;;;;12799267;23;20179;-70
2021/04/27 03:30:30;;;;;;;5.30;2.80;;;;;;;;;;12792917;23;20368;-70
2021/04/27 03:35:32;;;;;;;7.53;2.57;;;;;;;;;;12800958;23;20210;-71
2021/04/27 03:40:34;;;;;;;6.80;3.13;;;;;;;;;;12798322;23;20692;-71
2021/04/27 03:45:37;;;;;;;7.83;3.10;;;;;;;;;;12796668;23;20187;-70
2021/04/27 03:50:39;;;;;;;5.20;2.93;;;;;;;;;;12798541;23;20179;-71
2021/04/27 03:55:41;;;;;;;4.80;2.83;;;;;;;;;;12798679;23;20739;-71
2021/04/27 04:00:44;;;;;;;4.93;2.87;;;;;;;;;;12793451;23;20180;-71
2021/04/27 04:05:45;;;;;;;5.07;2.70;;;;;;;;;;12799438;23;20203;-71
2021/04/27 04:10:47;;;;;;;6.87;2.87;;;;;;;;;;12796832;23;20172;-70
2021/04/27 04:15:50;;;;;;;4.70;3.03;;;;;;;;;;12816617;23;20742;-71
2021/04/27 04:20:52;;;;;;;7.07;2.93;;;;;;;;;;12799542;23;20657;-71
2021/04/27 04:25:54;;;;;;;6.10;3.00;;;;;;;;;;12818902;23;20667;-71
2021/04/27 04:30:57;;;;;;;6.40;3.10;;;;;;;;;;12812978;23;20190;-70
2021/04/27 04:35:59;;;;;;;5.27;3.00;;;;;;;;;;12797599;23;20575;-71
2021/04/27 04:41:01;;;;;;;5.33;2.80;;;;;;;;;;12800257;23;20179;-71
2021/04/27 04:46:04;;;;;;;5.43;2.87;;;;;;;;;;12794034;23;20176;-70
2021/04/27 04:51:07;;;;;;;3.27;2.70;;;;;;;;;;12799994;23;20590;-71
2021/04/27 04:56:09;;;;;;;6.53;3.20;;;;;;;;;;12796855;23;20542;-71
2021/04/27 05:01:13;;;;;;;7.30;3.13;;;;;;;;;;12792929;23;20171;-71
2021/04/27 05:06:16;;;;;;;5.50;3.03;;;;;;;;;;12794955;23;20352;-73
2021/04/27 05:11:19;;;;;;;6.63;3.00;;;;;;;;;;12821890;23;20263;-72
2021/04/27 05:16:22;;;;;;;5.43;3.10;;;;;;;;;;12792492;23;20211;-72
2021/04/27 05:21:24;;;;;;;9.03;3.30;;;;;;;;;;12799051;23;20215;-72
2021/04/27 05:26:26;;;;;;;8.17;3.73;;;;;;;;;;12796815;23;20719;-73
2021/04/27 05:31:29;;;;;;;5.80;3.33;;;;;;;;;;12794313;23;20231;-73
2021/04/27 05:36:31;;;;;;;7.10;3.40;;;;;;;;;;12817371;23;20211;-71
2021/04/27 05:41:32;;;;;;;7.63;3.60;;;;;;;;;;12797742;23;20188;-71
2021/04/27 05:46:35;;;;;;;5.07;3.30;;;;;;;;;;12793434;23;20176;-72
2021/04/27 05:51:37;;;;;;;6.03;3.63;;;;;;;;;;12800878;23;20179;-71
2021/04/27 05:56:39;;;;;;;6.23;3.60;;;;;;;;;;12795618;23;20203;-71
2021/04/27 06:01:42;;;;;;;8.63;3.80;;;;;;;;;;12794717;23;20712;-72
2021/04/27 06:06:44;;;;;;;5.97;3.60;;;;;;;;;;12797873;23;20234;-71
2021/04/27 06:11:46;;;;;;;6.57;3.60;;;;;;;;;;12798159;23;20232;-72
2021/04/27 06:16:49;;;;;;;6.57;3.27;;;;;;;;;;12791315;23;20683;-72
2021/04/27 06:21:51;;;;;;;9.20;4.00;;;;;;;;;;12826412;23;20505;-72
2021/04/27 06:26:53;;;;;;;8.87;4.10;;;;;;;;;;12800516;23;20194;-71
2021/04/27 06:32:16;;;;;;;6.80;4.00;;;;;;;;;;12799873;23;20617;-71
2021/04/27 06:37:18;;;;;;;8.67;3.90;;;;;;;;;;12801129;23;20659;-71
2021/04/27 06:42:20;;;;;;;7.87;3.80;;;;;;;;;;12800765;23;20176;-71
2021/04/27 06:47:23;;;;;;;6.30;3.73;;;;;;;;;;12798459;23;20178;-71
2021/04/27 06:52:25;;;;;;;7.07;4.50;;;;;;;;;;12824896;23;20184;-72
2021/04/27 06:57:28;;;;;;;8.60;4.20;;;;;;;;;;12798114;23;20668;-72
2021/04/27 07:02:31;;;;;;;7.60;4.10;;;;;;;;;;12801122;23;20716;-72
2021/04/27 07:07:33;;;;;;;8.27;4.20;;;;;;;;;;12801023;23;20182;-72
2021/04/27 07:12:35;;;;;;;7.30;4.10;;;;;;;;;;12802739;23;20238;-72
2021/04/27 07:17:38;;;;;;;8.97;4.30;;;;;;;;;;12820416;23;20282;-73
2021/04/27 07:22:40;;;;;;;9.03;3.80;;;;;;;;;;12825741;23;20178;-72
2021/04/27 07:27:43;;;;;;;7.50;4.13;;;;;;;;;;12799298;23;20187;-72
2021/04/27 07:32:46;;;;;;;7.50;4.53;;;;;;;;;;12802319;23;20183;-71
2021/04/27 07:37:48;;;;;;;6.67;4.27;;;;;;;;;;12807628;23;20534;-71
2021/04/27 07:42:50;;;;;;;8.27;4.60;;;;;;;;;;12798018;23;20180;-70
2021/04/27 07:47:53;;;;;;;7.80;4.20;;;;;;;;;;12805471;23;20180;-70
2021/04/27 07:52:55;;;;;;;10.37;4.50;;;;;;;;;;12831765;23;20178;-71
2021/04/27 07:57:57;;;;;;;6.53;4.20;;;;;;;;;;12804930;23;20640;-73
2021/04/27 08:03:00;;;;;;;7.23;4.70;;;;;;;;;;12803056;23;21177;-72
2021/04/27 08:08:03;;;;;;;8.67;4.50;;;;;;;;;;12821383;23;20554;-71
2021/04/27 08:13:06;;;;;;;8.33;4.80;;;;;;;;;;12797823;23;20231;-72
2021/04/27 08:18:09;;;;;;;7.97;4.63;;;;;;;;;;12799768;23;20539;-73
2021/04/27 08:23:11;;;;;;;6.33;4.40;;;;;;;;;;12800989;23;20215;-72
2021/04/27 08:28:30;;;;;;;5.77;3.77;;;;;;;;;;12796529;23;20168;-72
2021/04/27 08:33:33;;;;;;;7.40;4.70;;;;;;;;;;12797452;23;20183;-72
2021/04/27 08:38:36;;;;;;;6.77;4.57;;;;;;;;;;12822738;23;20203;-72
2021/04/27 08:43:38;;;;;;;10.70;4.10;;;;;;;;;;12795039;23;20255;-73
2021/04/27 08:48:41;;;;;;;6.97;4.30;;;;;;;;;;12798900;23;20237;-73
2021/04/27 08:53:44;;;;;;;7.40;4.13;;;;;;;;;;12797169;23;20272;-72
2021/04/27 08:58:47;;;;;;;6.13;4.30;;;;;;;;;;12796175;23;20310;-72
2021/04/27 09:03:51;;;;;;;7.57;4.70;;;;;;;;;;12820282;23;20286;-72
2021/04/27 09:08:54;;;;;;;7.37;3.77;;;;;;;;;;12799615;23;20559;-72
2021/04/27 09:14:10;;;;;;;5.93;4.37;;;;;;;;;;12793548;23;20255;-72
2021/04/27 09:19:27;;;;;;;5.30;3.77;;;;;;;;;;12800054;23;20542;-72
2021/04/27 09:24:32;;;;;;;5.93;4.30;;;;;;;;;;12797005;23;20230;-73
2021/04/27 09:29:36;;;;;;;7.27;4.13;;;;;;;;;;12795464;23;20164;-72
2021/04/27 09:34:39;;;;;;;7.10;3.90;;;;;;;;;;12797390;23;20215;-72
2021/04/27 09:39:42;;;;;;;7.27;4.40;;;;;;;;;;12820784;23;20508;-72
2021/04/27 09:44:45;;;;;;;7.43;4.60;;;;;;;;;;12815918;23;20183;-72
2021/04/27 09:49:52;;;;;;;7.50;4.27;;;;;;;;;;12819775;23;20346;-72
2021/04/27 09:55:08;;;;;;;7.57;4.10;;;;;;;;;;12797158;23;20207;-72
2021/04/27 10:00:23;;;;;;;9.60;3.80;;;;;;;;;;12791246;23;20174;-72
2021/04/27 10:05:26;;;;;;;5.57;3.57;;;;;;;;;;12799195;23;20265;-72
2021/04/27 10:10:29;;;;;;;4.70;3.43;;;;;;;;;;12795482;23;20545;-72
2021/04/27 10:15:32;;;;;;;4.97;3.13;;;;;;;;;;12794116;23;20562;-72
2021/04/27 10:20:35;;;;;;;7.63;3.70;;;;;;;;;;12798659;23;20983;-71
2021/04/27 10:25:37;;;;;;;6.37;2.97;;;;;;;;;;12799427;23;20175;-72
2021/04/27 10:30:40;;;;;;;6.40;3.80;;;;;;;;;;12790660;23;20567;-72
2021/04/27 10:35:44;;;;;;;7.00;3.30;;;;;;;;;;12800241;23;20636;-72
2021/04/27 10:40:50;;;;;;;6.93;3.83;;;;;;;;;;12796474;23;20617;-72
2021/04/27 10:45:53;;;;;;;4.33;3.40;;;;;;;;;;12793364;23;20669;-72
2021/04/27 10:50:57;;;;;;;6.97;3.87;;;;;;;;;;12796244;23;20175;-72
2021/04/27 10:55:59;;;;;;;5.50;3.43;;;;;;;;;;12797054;23;20208;-72
2021/04/27 11:01:16;;;;;;;4.23;2.50;;;;;;;;;;12816355;23;20834;-72
2021/04/27 11:06:19;;;;;;;4.73;2.70;;;;;;;;;;12802754;23;20294;-72
2021/04/27 11:11:23;;;;;;;3.63;2.73;;;;;;;;;;12800186;23;20179;-71
2021/04/27 11:16:26;;;;;;;7.33;3.17;;;;;;;;;;12798873;23;20208;-72
2021/04/27 11:21:32;;;;;;;6.43;3.20;;;;;;;;;;12805889;23;20176;-72
2021/04/27 11:26:40;;;;;;;5.23;2.50;;;;;;;;;;12801908;23;20234;-72
2021/04/27 11:31:53;;;;;;;5.67;3.43;;;;;;;;;;12797530;23;20529;-73
2021/04/27 11:36:58;;;;;;;4.40;2.80;;;;;;;;;;12800509;23;20207;-72
2021/04/27 11:42:01;;;;;;;8.07;2.60;;;;;;;;;;12804287;23;20258;-72
2021/04/27 11:47:06;;;;;;;5.33;2.73;;;;;;;;;;12814638;23;20534;-73
2021/04/27 11:52:09;;;;;;;4.50;2.50;;;;;;;;;;12802564;23;20179;-73
2021/04/27 11:57:15;;;;;;;2.47;2.03;;;;;;;;;;12798220;23;20303;-73
2021/04/27 12:02:17;;;;;;;4.03;2.40;;;;;;;;;;12796936;23;20239;-72
2021/04/27 12:07:25;;;;;;;2.47;1.83;;;;;;;;;;12819780;23;20651;-73
2021/04/27 12:12:28;;;;;;;5.77;2.20;;;;;;;;;;12818792;23;20883;-72
2021/04/27 12:17:31;;;;;;;5.43;2.50;;;;;;;;;;12798654;23;20668;-72
2021/04/27 12:22:39;;;;;;;4.87;2.53;;;;;;;;;;12799080;23;20580;-73
2021/04/27 12:27:41;;;;;;;4.43;3.00;;;;;;;;;;12816869;23;20191;-73
2021/04/27 12:32:47;;;;;;;4.93;3.17;;;;;;;;;;12820550;23;20186;-72
2021/04/27 12:37:58;;;;;;;4.43;2.47;;;;;;;;;;12819751;23;20242;-72
2021/04/27 12:43:02;;;;;;;3.27;2.10;;;;;;;;;;12820236;23;20180;-73
2021/04/27 12:48:05;;;;;;;5.47;3.90;;;;;;;;;;12797876;23;20609;-73
2021/04/27 12:53:08;;;;;;;4.83;3.30;;;;;;;;;;12801605;23;20211;-72
2021/04/27 12:58:11;;;;;;;5.37;3.60;;;;;;;;;;12801851;23;20484;-73
2021/04/27 13:03:13;;;;;;;5.53;3.83;;;;;;;;;;12804708;23;20547;-73
2021/04/27 13:08:16;;;;;;;3.73;2.60;;;;;;;;;;12799710;23;20238;-73
2021/04/27 13:13:20;;;;;;;4.70;2.60;;;;;;;;;;12798377;23;20354;-73
2021/04/27 13:18:23;;;;;;;3.13;2.17;;;;;;;;;;12796467;23;20371;-73
2021/04/27 13:23:26;;;;;;;2.97;2.20;;;;;;;;;;12802056;23;20241;-73
2021/04/27 13:28:30;;;;;;;4.07;2.00;;;;;;;;;;12794908;23;20183;-79
2021/04/27 13:33:33;;;;;;;5.97;2.70;;;;;;;;;;12818254;23;20692;-73
2021/04/27 13:38:39;;;;;;;5.57;2.30;;;;;;;;;;12796336;23;20199;-73
2021/04/27 13:43:43;;;;;;;7.80;2.40;;;;;;;;;;12816495;23;20270;-73
2021/04/27 13:48:46;;;;;;;5.13;2.07;;;;;;;;;;12796381;23;20404;-73
2021/04/27 13:53:50;;;;;;;7.60;3.00;;;;;;;;;;12818817;23;20175;-72
2021/04/27 13:58:52;;;;;;;3.83;2.57;;;;;;;;;;12787551;23;20286;-75
2021/04/27 14:03:54;;;;;;;7.50;2.90;;;;;;;;;;12798861;23;20231;-73
2021/04/27 14:09:16;;;;;;;8.03;3.03;;;;;;;;;;12820141;23;20191;-75
2021/04/27 14:14:18;;;;;;;9.10;3.60;;;;;;;;;;12794030;23;20203;-76
2021/04/27 14:19:20;;;;;;;4.40;3.27;;;;;;;;;;12794677;23;20214;-74
2021/04/27 14:24:23;;;;;;;5.10;3.50;;;;;;;;;;12797612;23;20179;-73
2021/04/27 14:29:25;;;;;;;4.97;3.20;;;;;;;;;;12790654;23;20234;-72
2021/04/27 14:34:28;;;;;;;5.43;2.97;;;;;;;;;;12797978;23;20175;-74
2021/04/27 14:39:31;;;;;;;6.13;3.20;;;;;;;;;;12798217;23;20250;-74
2021/04/27 14:44:34;;;;;;;4.67;3.30;;;;;;;;;;12796486;23;20553;-74
2021/04/27 14:49:36;;;;;;;6.23;3.70;;;;;;;;;;12803010;23;20265;-73
2021/04/27 14:54:39;;;;;;;8.00;4.00;;;;;;;;;;12800018;23;20238;-73
2021/04/27 14:59:41;;;;;;;8.67;4.00;;;;;;;;;;12819098;23;20203;-74
2021/04/27 15:04:43;;;;;;;6.60;4.27;;;;;;;;;;12817741;23;20223;-73
2021/04/27 15:09:46;;;;;;;8.53;4.03;;;;;;;;;;12802302;23;20483;-74
2021/04/27 15:14:48;;;;;;;6.13;3.90;;;;;;;;;;12795627;23;20643;-74
2021/04/27 15:19:50;;;;;;;4.60;3.73;;;;;;;;;;12801392;23;20250;-74
2021/04/27 15:24:53;;;;;;;9.03;4.40;;;;;;;;;;12797924;23;20180;-74
2021/04/27 15:29:58;;;;;;;6.93;4.20;;;;;;;;;;12794015;23;20202;-72
2021/04/27 15:35:00;;;;;;;6.07;3.50;;;;;;;;;;12818865;23;20175;-73
2021/04/27 15:40:03;;;;;;;8.97;3.80;;;;;;;;;;12799461;23;20537;-74
2021/04/27 15:45:06;;;;;;;7.33;3.60;;;;;;;;;;12793603;23;20242;-73
2021/04/27 15:50:10;;;;;;;4.87;3.60;;;;;;;;;;12797326;23;20184;-73
2021/04/27 15:55:13;;;;;;;6.40;3.90;;;;;;;;;;12820458;23;20171;-72
2021/04/27 16:00:16;;;;;;;5.00;3.73;;;;;;;;;;12816995;23;20563;-72
2021/04/27 16:05:19;;;;;;;6.73;3.10;;;;;;;;;;12797945;23;20207;-72
2021/04/27 16:10:22;;;;;;;8.47;3.33;;;;;;;;;;12820935;23;20490;-74
2021/04/27 16:15:24;;;;;;;7.47;3.63;;;;;;;;;;12805011;23;20190;-73
2021/04/27 16:20:26;;;;;;;7.27;3.47;;;;;;;;;;12792301;23;20181;-84
2021/04/27 16:25:29;;;;;;;4.50;3.10;;;;;;;;;;12787753;23;20743;-76
2021/04/27 16:30:31;;;;;;;5.57;3.60;;;;;;;;;;12809579;23;20191;-73
2021/04/27 16:35:33;;;;;;;4.83;3.13;;;;;;;;;;12790233;23;20207;-73
2021/04/27 16:40:36;;;;;;;7.00;4.00;;;;;;;;;;12813822;23;20171;-73
2021/04/27 16:45:37;;;;;;;5.50;3.25;;;;;;;;;;12780660;23;20645;-73
2021/04/27 16:50:40;;;;;;;6.50;3.17;;;;;;;;;;12795746;23;20274;-73
2021/04/27 16:55:43;;;;;;;9.77;3.27;;;;;;;;;;12785349;23;20627;-73
2021/04/27 17:00:45;;;;;;;5.73;2.77;;;;;;;;;;12811683;23;20813;-73
2021/04/27 17:05:46;;;;;;;6.80;3.07;;;;;;;;;;12791878;23;20212;-73
2021/04/27 17:10:49;;;;;;;4.47;2.70;;;;;;;;;;12792299;23;20184;-73
2021/04/27 17:15:52;;;;;;;7.33;3.03;;;;;;;;;;12782846;23;20208;-73
2021/04/27 17:20:54;;;;;;;3.87;2.60;;;;;;;;;;12795341;23;20182;-73
2021/04/27 17:25:56;;;;;;;5.93;2.80;;;;;;;;;;12792534;23;20643;-72
2021/04/27 17:30:58;;;;;;;7.67;3.00;;;;;;;;;;12786950;23;20198;-73
2021/04/27 17:36:00;;;;;;;7.03;3.20;;;;;;;;;;12795582;23;20204;-73
2021/04/27 17:41:03;;;;;;;6.07;2.70;;;;;;;;;;12788671;23;20245;-73
2021/04/27 17:46:05;;;;;;;8.80;2.70;;;;;;;;;;12787925;23;20179;-73
2021/04/27 17:51:07;;;;;;;3.77;3.00;;;;;;;;;;12788325;23;20183;-72
2021/04/27 17:56:09;;;;;;;5.73;2.80;;;;;;;;;;12789602;23;20203;-73
2021/04/27 18:01:12;;;;;;;4.30;2.70;;;;;;;;;;12785259;23;20175;-72
2021/04/27 18:06:14;;;;;;;4.40;2.83;;;;;;;;;;12797910;23;20871;-73
2021/04/27 18:11:16;;;;;;;5.63;2.60;;;;;;;;;;12796662;23;20176;-72
2021/04/27 18:16:18;;;;;;;6.23;2.83;;;;;;;;;;12787648;23;20725;-73
2021/04/27 18:21:21;;;;;;;4.07;2.90;;;;;;;;;;12786761;23;20527;-72
2021/04/27 18:26:28;;;;;;;4.37;2.87;;;;;;;;;;12811130;23;20673;-73
2021/04/27 18:31:30;;;;;;;5.73;2.80;;;;;;;;;;12784357;23;20532;-73
2021/04/27 18:36:32;;;;;;;7.93;2.83;;;;;;;;;;12811129;23;20681;-73
2021/04/27 18:41:34;;;;;;;7.73;3.13;;;;;;;;;;12787050;23;20636;-73
2021/04/27 18:46:36;;;;;;;4.80;3.10;;;;;;;;;;12785845;23;20180;-72
2021/04/27 18:51:39;;;;;;;5.05;3.20;;;;;;;;;;12808921;23;20421;-74
2021/04/27 18:56:42;;;;;;;4.10;2.80;;;;;;;;;;12812746;23;21021;-72
2021/04/27 19:01:44;;;;;;;5.37;2.90;;;;;;;;;;12785079;23;20192;-73
2021/04/27 19:06:46;;;;;;;5.57;3.10;;;;;;;;;;12811146;23;20194;-72
2021/04/27 19:11:49;;;;;;;7.43;3.00;;;;;;;;;;12788095;23;20176;-73
2021/04/27 19:16:51;;;;;;;6.60;3.50;;;;;;;;;;12787889;23;20290;-73
2021/04/27 19:21:53;;;;;;;7.00;3.40;;;;;;;;;;12814395;23;20176;-72
2021/04/27 19:26:56;;;;;;;8.40;4.03;;;;;;;;;;12802879;23;20637;-72
2021/04/27 19:31:58;;;;;;;11.47;4.93;;;;;;;;;;12790708;23;20180;-72
2021/04/27 19:37:00;;;;;;;12.70;4.87;;;;;;;;;;12799508;23;20211;-71
2021/04/27 19:42:05;;;;;;;9.17;4.37;;;;;;;;;;12800632;23;20623;-71
2021/04/27 19:47:08;;;;;;;8.80;4.43;;;;;;;;;;12799898;23;20530;-72
2021/04/27 19:52:12;;;;;;;5.90;4.20;;;;;;;;;;12819010;23;20436;-72
2021/04/27 19:57:15;;;;;;;7.70;4.57;;;;;;;;;;12808581;23;20286;-72
2021/04/27 20:02:34;;;;;;;7.77;4.57;;;;;;;;;;12812612;23;20766;-72
2021/04/27 20:07:36;;;;;;;13.03;5.03;;;;;;;;;;12825851;23;20180;-73
2021/04/27 20:12:39;;;;;;;8.60;5.33;;;;;;;;;;12820256;23;20175;-72
2021/04/27 20:17:41;;;;;;;6.50;4.53;;;;;;;;;;12800482;23;20684;-72
2021/04/27 20:22:44;;;;;;;11.93;5.80;;;;;;;;;;12803822;23;20259;-72
2021/04/27 20:27:47;;;;;;;11.47;6.77;;;;;;;;;;12818830;23;20570;-72
2021/04/27 20:32:49;;;;;;;11.17;6.20;;;;;;;;;;12822107;23;20175;-72
2021/04/27 20:37:51;;;;;;;15.20;6.80;;;;;;;;;;12800344;23;20728;-72
2021/04/27 20:42:54;;;;;;;18.17;6.00;;;;;;;;;;12821244;23;20266;-73
2021/04/27 20:47:57;;;;;;;10.70;5.77;;;;;;;;;;12796537;23;20203;-72
2021/04/27 20:52:59;;;;;;;14.07;5.97;;;;;;;;;;12801731;23;20185;-72
2021/04/27 20:58:02;;;;;;;11.77;6.17;;;;;;;;;;12809542;23;20217;-72
2021/04/27 21:03:04;;;;;;;10.07;5.90;;;;;;;;;;12798904;23;20689;-72
2021/04/27 21:08:06;;;;;;;7.07;4.63;;;;;;;;;;12799385;23;20226;-72
2021/04/27 21:13:12;;;;;;;11.70;6.00;;;;;;;;;;12798518;23;20566;-72
2021/04/27 21:18:14;;;;;;;8.43;5.00;;;;;;;;;;12817630;23;20254;-72
2021/04/27 21:23:16;;;;;;;8.23;4.10;;;;;;;;;;12798558;23;20176;-72
2021/04/27 21:28:19;;;;;;;6.90;3.80;;;;;;;;;;12817220;23;20218;-72
2021/04/27 21:33:21;;;;;;;9.57;4.20;;;;;;;;;;12796593;23;20563;-72
2021/04/27 21:38:22;;;;;;;8.03;4.17;;;;;;;;;;12797884;23;20707;-72
2021/04/27 21:43:25;;;;;;;6.67;4.20;;;;;;;;;;12797005;23;20183;-72
2021/04/27 21:48:27;;;;;;;12.20;4.40;;;;;;;;;;12820204;23;20340;-72
2021/04/27 21:53:29;;;;;;;6.30;4.50;;;;;;;;;;12802406;23;20670;-72
2021/04/27 21:58:33;;;;;;;9.67;5.00;;;;;;;;;;12817647;23;20254;-72
2021/04/27 22:03:35;;;;;;;7.17;4.60;;;;;;;;;;12797076;23;20205;-72
2021/04/27 22:08:37;;;;;;;6.80;4.53;;;;;;;;;;12815878;23;20179;-72
2021/04/27 22:13:40;;;;;;;14.03;4.63;;;;;;;;;;12794977;23;20254;-72
2021/04/27 22:18:42;;;;;;;6.13;4.33;;;;;;;;;;12817951;23;20211;-72
2021/04/27 22:23:44;;;;;;;8.97;4.70;;;;;;;;;;12793563;23;20186;-73
2021/04/27 22:28:47;;;;;;;9.83;4.50;;;;;;;;;;12818166;23;20206;-72
2021/04/27 22:33:49;;;;;;;7.37;4.10;;;;;;;;;;12794107;23;20638;-72
2021/04/27 22:38:52;;;;;;;9.80;4.03;;;;;;;;;;12797829;23;20207;-72
2021/04/27 22:43:55;;;;;;;5.67;4.10;;;;;;;;;;12791478;23;20190;-72
2021/04/27 22:48:56;;;;;;;6.97;4.17;;;;;;;;;;12796037;23;20712;-72
2021/04/27 22:53:59;;;;;;;8.97;4.20;;;;;;;;;;12794659;23;20188;-72
2021/04/27 22:59:02;;;;;;;9.60;4.10;;;;;;;;;;12792713;23;20203;-73
2021/04/27 23:04:04;;;;;;;8.03;4.10;;;;;;;;;;12798868;23;20210;-72
2021/04/27 23:09:06;;;;;;;5.13;3.63;;;;;;;;;;12802742;23;20743;-74
2021/04/27 23:14:09;;;;;;;7.27;4.27;;;;;;;;;;12797035;23;20649;-72
2021/04/27 23:19:11;;;;;;;5.77;4.17;;;;;;;;;;12802004;23;20211;-72
2021/04/27 23:24:12;;;;;;;6.40;4.10;;;;;;;;;;12806940;23;20222;-72
2021/04/27 23:29:15;;;;;;;8.67;3.97;;;;;;;;;;12799070;23;20656;-72
2021/04/27 23:34:17;;;;;;;11.93;4.87;;;;;;;;;;12800837;23;20176;-72
2021/04/27 23:39:19;;;;;;;8.00;4.13;;;;;;;;;;12800679;23;20631;-72
2021/04/27 23:44:22;;;;;;;5.93;4.07;;;;;;;;;;12796388;23;20385;-72
2021/04/27 23:49:24;;;;;;;5.57;4.10;;;;;;;;;;12819130;23;20190;-72
2021/04/27 23:54:25;;;;;;;7.97;4.17;;;;;;;;;;12801577;23;20180;-72
2021/04/27 23:59:28;;;;;;;8.93;4.30;;;;;;;;;;12793250;23;20215;-72
